Time;durP1;ratioP1;P1;durP2;ratioP2;P2;SDS_P1;SDS_P2;PMS_P1;PMS_P2;Temp;Humidity;BMP_temperature;BMP_pressure;BME280_temperature;BME280_humidity;BME280_pressure;Samples;Min_cycle;Max_cycle;Signal;HPM_P1;HPM_P2
2023/07/07 00:00:37;;;;;;;;;;;;;;;14.90;84.27;101921.63;5024341;28;20269;-53
2023/07/07 00:03:02;;;;;;;;;;;;;;;14.90;84.28;101918.16;5027744;28;20002;-51
2023/07/07 00:05:28;;;;;;;;;;;;;;;14.88;84.47;101915.53;5006639;28;19929;-52
2023/07/07 00:07:53;;;;;;;;;;;;;;;14.87;84.46;101918.97;5003706;28;20380;-53
2023/07/07 00:10:19;;;;;;;;;;;;;;;14.87;84.63;101920.66;5003015;28;20019;-52
2023/07/07 00:12:45;;;;;;;;;;;;;;;14.83;84.80;101917.09;5008576;28;19932;-51
2023/07/07 00:15:10;;;;;;;;;;;;;;;14.83;85.24;101918.81;5007004;28;19918;-49
2023/07/07 00:17:35;;;;;;;;;;;;;;;14.78;85.30;101918.69;5004794;28;19969;-50
2023/07/07 00:20:06;;;;;;;;;;;;;;;14.78;85.62;101921.28;5006825;28;20016;-52
2023/07/07 00:22:33;;;;;;;;;;;;;;;14.76;85.46;101922.97;5011757;28;20598;-48
2023/07/07 00:24:58;;;;;;;;;;;;;;;14.74;85.99;101922.00;5005200;28;19918;-50
2023/07/07 00:27:23;;;;;;;;;;;;;;;14.72;85.98;101923.69;5006099;28;19984;-48
2023/07/07 00:29:48;;;;;;;;;;;;;;;14.70;85.92;101926.25;4997812;28;19976;-50
2023/07/07 00:32:14;;;;;;;;;;;;;;;14.66;86.18;101919.22;5001943;28;19925;-51
2023/07/07 00:34:39;;;;;;;;;;;;;;;14.66;86.92;101919.22;4999380;28;20579;-49
2023/07/07 00:37:04;;;;;;;;;;;;;;;14.62;86.58;101920.00;4981611;28;19980;-48
2023/07/07 00:39:29;;;;;;;;;;;;;;;14.61;87.12;101928.56;5005001;28;19921;-52
2023/07/07 00:41:54;;;;;;;;;;;;;;;14.59;86.56;101927.66;5003302;28;20434;-48
2023/07/07 00:44:20;;;;;;;;;;;;;;;14.56;87.10;101931.84;5005793;28;19929;-50
2023/07/07 00:46:45;;;;;;;;;;;;;;;14.53;86.69;101931.78;5005661;28;19925;-51
2023/07/07 00:49:14;;;;;;;;;;;;;;;14.49;87.21;101931.69;5000477;28;20018;-51
2023/07/07 00:52:00;;;;;;;;;;;;;;;14.46;86.81;101929.00;5002608;28;19917;-48
2023/07/07 00:54:30;;;;;;;;;;;;;;;14.41;87.59;101924.50;5002373;28;20395;-52
2023/07/07 00:56:55;;;;;;;;;;;;;;;14.39;87.60;101927.06;5008277;28;19917;-49
2023/07/07 00:59:41;;;;;;;;;;;;;;;14.35;87.47;101922.63;5003011;28;19941;-49
2023/07/07 01:02:10;;;;;;;;;;;;;;;14.34;87.99;101923.44;5002788;28;19918;-48
2023/07/07 01:04:37;;;;;;;;;;;;;;;14.32;88.01;101922.53;4991347;28;19929;-49
2023/07/07 01:07:08;;;;;;;;;;;;;;;14.29;88.02;101930.19;5013800;28;19936;-49
2023/07/07 01:09:33;;;;;;;;;;;;;;;14.26;88.52;101927.53;5018056;28;19964;-51
2023/07/07 01:11:59;;;;;;;;;;;;;;;14.26;87.99;101931.78;5021986;28;19956;-51
2023/07/07 01:14:26;;;;;;;;;;;;;;;14.22;88.35;101936.03;5027362;28;19926;-52
2023/07/07 01:17:01;;;;;;;;;;;;;;;14.17;88.70;101933.28;5015584;28;20569;-52
2023/07/07 01:19:27;;;;;;;;;;;;;;;14.15;88.97;101929.78;5021654;28;19936;-52
2023/07/07 01:22:06;;;;;;;;;;;;;;;14.13;88.97;101933.13;5023762;28;19918;-50
2023/07/07 01:24:36;;;;;;;;;;;;;;;14.11;88.35;101932.22;5025918;28;19920;-52
2023/07/07 01:27:07;;;;;;;;;;;;;;;14.07;88.55;101931.25;5020762;28;19924;-51
2023/07/07 01:29:32;;;;;;;;;;;;;;;14.05;89.22;101926.88;5022106;28;19942;-53
2023/07/07 01:32:00;;;;;;;;;;;;;;;14.04;89.28;101930.28;5025674;28;20275;-52
2023/07/07 01:34:26;;;;;;;;;;;;;;;14.02;89.14;101930.25;5020537;28;19925;-53
2023/07/07 01:36:51;;;;;;;;;;;;;;;13.99;89.62;101924.09;5017353;28;19928;-52
2023/07/07 01:39:17;;;;;;;;;;;;;;;13.98;90.63;101935.25;5018901;28;19925;-51
2023/07/07 01:41:52;;;;;;;;;;;;;;;13.94;90.40;101929.09;5019899;28;19929;-51
2023/07/07 01:44:17;;;;;;;;;;;;;;;13.91;90.23;101931.63;5016378;28;19929;-52
2023/07/07 01:46:47;;;;;;;;;;;;;;;13.88;90.34;101924.63;5017769;28;19996;-52
2023/07/07 01:49:13;;;;;;;;;;;;;;;13.86;90.95;101931.47;5018366;28;20489;-48
2023/07/07 01:51:49;;;;;;;;;;;;;;;13.83;91.07;101933.97;5021190;28;20381;-52
2023/07/07 01:54:15;;;;;;;;;;;;;;;13.79;91.08;101933.81;5025493;28;19975;-53
2023/07/07 01:56:42;;;;;;;;;;;;;;;13.76;91.51;101926.81;5023913;28;19914;-52
2023/07/07 01:59:07;;;;;;;;;;;;;;;13.74;91.48;101931.06;5015323;28;20446;-52
2023/07/07 02:01:33;;;;;;;;;;;;;;;13.72;91.71;101924.13;5018929;28;19967;-51
2023/07/07 02:03:59;;;;;;;;;;;;;;;13.68;90.97;101925.72;5017826;28;20379;-51
2023/07/07 02:06:24;;;;;;;;;;;;;;;13.63;91.46;101924.69;5020647;28;19929;-52
2023/07/07 02:08:49;;;;;;;;;;;;;;;13.60;91.74;101922.88;5023095;28;20371;-52
2023/07/07 02:11:14;;;;;;;;;;;;;;;13.60;91.84;101927.19;5025566;28;19998;-52
2023/07/07 02:13:40;;;;;;;;;;;;;;;13.57;92.08;101929.66;5023274;28;20024;-51
2023/07/07 02:16:07;;;;;;;;;;;;;;;13.55;92.01;101926.16;5022794;28;19932;-52
2023/07/07 02:18:37;;;;;;;;;;;;;;;13.53;93.05;101920.03;5023025;28;20485;-52
2023/07/07 02:21:02;;;;;;;;;;;;;;;13.52;92.65;101915.69;5028960;28;19929;-50
2023/07/07 02:23:28;;;;;;;;;;;;;;;13.50;92.55;101922.53;5026117;28;19928;-53
2023/07/07 02:25:53;;;;;;;;;;;;;;;13.47;92.28;101919.81;5026385;28;20016;-52
2023/07/07 02:28:18;;;;;;;;;;;;;;;13.44;92.39;101919.75;5010747;28;19921;-50
2023/07/07 02:30:44;;;;;;;;;;;;;;;13.43;92.77;101918.88;5014316;28;19917;-50
2023/07/07 02:33:09;;;;;;;;;;;;;;;13.40;92.61;101921.34;5024499;28;19921;-51
2023/07/07 02:35:35;;;;;;;;;;;;;;;13.37;92.57;101921.25;5026259;28;19929;-50
2023/07/07 02:38:00;;;;;;;;;;;;;;;13.36;93.28;101924.66;5025315;28;19921;-53
2023/07/07 02:40:25;;;;;;;;;;;;;;;13.33;93.44;101928.00;5023167;28;20054;-49
2023/07/07 02:42:51;;;;;;;;;;;;;;;13.31;93.86;101919.34;5026793;28;19957;-55
2023/07/07 02:45:16;;;;;;;;;;;;;;;13.30;94.13;101922.75;5024307;28;19925;-49
2023/07/07 02:47:41;;;;;;;;;;;;;;;13.26;94.25;101920.00;5027568;28;20402;-48
2023/07/07 02:50:07;;;;;;;;;;;;;;;13.20;94.32;101925.78;5026140;28;19921;-47
2023/07/07 02:52:32;;;;;;;;;;;;;;;13.17;94.58;101927.41;5018023;28;19933;-49
2023/07/07 02:54:58;;;;;;;;;;;;;;;13.13;94.57;101934.16;5026960;28;19929;-50
2023/07/07 02:57:23;;;;;;;;;;;;;;;13.10;94.22;101937.53;5021850;28;19925;-52
2023/07/07 02:59:48;;;;;;;;;;;;;;;13.07;94.75;101928.78;5008776;28;19936;-52
2023/07/07 03:02:14;;;;;;;;;;;;;;;13.04;94.86;101939.91;5023587;28;19925;-49
2023/07/07 03:04:39;;;;;;;;;;;;;;;13.02;94.53;101938.06;5025355;28;19916;-49
2023/07/07 03:07:05;;;;;;;;;;;;;;;13.01;95.28;101938.91;4992847;28;19935;-49
2023/07/07 03:09:30;;;;;;;;;;;;;;;13.00;96.10;101934.56;5006853;28;19927;-49
2023/07/07 03:11:55;;;;;;;;;;;;;;;12.96;95.85;101935.28;5010190;28;19948;-51
2023/07/07 03:14:21;;;;;;;;;;;;;;;12.92;95.34;101943.72;5003520;28;19945;-48
2023/07/07 03:16:50;;;;;;;;;;;;;;;12.88;95.68;101947.91;5004885;28;20375;-48
2023/07/07 03:19:16;;;;;;;;;;;;;;;12.85;95.57;101951.25;5002516;28;19964;-51
2023/07/07 03:21:41;;;;;;;;;;;;;;;12.82;95.64;101947.69;5006863;28;19965;-49
2023/07/07 03:24:07;;;;;;;;;;;;;;;12.81;96.60;101951.09;5001633;28;20041;-50
2023/07/07 03:26:33;;;;;;;;;;;;;;;12.78;96.13;101941.53;4984444;28;19936;-50
2023/07/07 03:28:58;;;;;;;;;;;;;;;12.78;96.34;101943.25;5004944;28;20367;-49
2023/07/07 03:31:25;;;;;;;;;;;;;;;12.75;97.02;101946.59;4998781;28;20446;-49
2023/07/07 03:33:54;;;;;;;;;;;;;;;12.74;97.48;101946.53;5002572;28;19921;-50
2023/07/07 03:36:24;;;;;;;;;;;;;;;12.70;96.98;101947.25;5004982;28;19925;-50
2023/07/07 03:38:49;;;;;;;;;;;;;;;12.68;97.08;101944.63;5001356;28;20340;-48
2023/07/07 03:41:16;;;;;;;;;;;;;;;12.66;97.52;101945.38;5004545;28;20383;-51
2023/07/07 03:43:45;;;;;;;;;;;;;;;12.63;97.82;101948.75;5005096;28;19925;-50
2023/07/07 03:46:10;;;;;;;;;;;;;;;12.61;97.36;101947.78;5005730;28;20292;-50
2023/07/07 03:48:36;;;;;;;;;;;;;;;12.59;96.29;101944.28;5001980;28;20372;-43
2023/07/07 03:51:02;;;;;;;;;;;;;;;12.59;96.59;101946.84;5003506;28;19921;-44
2023/07/07 03:53:28;;;;;;;;;;;;;;;12.58;97.10;101947.69;5005170;28;19930;-44
2023/07/07 03:55:54;;;;;;;;;;;;;;;12.59;97.06;101949.44;5004145;28;19932;-44
2023/07/07 03:58:20;;;;;;;;;;;;;;;12.60;97.22;101946.03;5002834;28;19980;-45
2023/07/07 04:00:46;;;;;;;;;;;;;;;12.60;97.14;101951.19;5001900;28;20295;-45
2023/07/07 04:03:12;;;;;;;;;;;;;;;12.62;96.98;101952.16;5007528;28;19921;-46
2023/07/07 04:05:42;;;;;;;;;;;;;;;12.61;97.14;101943.50;5001334;28;19936;-45
2023/07/07 04:08:07;;;;;;;;;;;;;;;12.63;96.82;101947.84;5013945;28;19921;-44
2023/07/07 04:10:32;;;;;;;;;;;;;;;12.61;96.63;101943.50;5016602;28;19935;-43
2023/07/07 04:12:57;;;;;;;;;;;;;;;12.61;95.59;101948.66;5012847;28;20382;-45
2023/07/07 04:15:22;;;;;;;;;;;;;;;12.64;94.64;101952.19;5017814;28;20227;-43
2023/07/07 04:17:48;;;;;;;;;;;;;;;12.65;95.03;101946.19;5021287;28;19921;-48
2023/07/07 04:20:13;;;;;;;;;;;;;;;12.66;94.74;101946.25;5018847;28;19956;-45
2023/07/07 04:22:38;;;;;;;;;;;;;;;12.68;90.40;101954.94;5021600;28;19928;-43
2023/07/07 04:25:11;;;;;;;;;;;;;;;12.72;92.16;101959.38;5021564;28;19936;-48
2023/07/07 04:27:36;;;;;;;;;;;;;;;12.79;91.75;101961.34;5017828;28;20523;-46
2023/07/07 04:30:03;;;;;;;;;;;;;;;13.15;90.89;101964.38;5020627;28;20435;-44
2023/07/07 04:32:28;;;;;;;;;;;;;;;13.91;89.13;101960.06;5021301;28;20048;-47
2023/07/07 04:34:54;;;;;;;;;;;;;;;14.74;85.16;101961.75;5019590;28;20032;-45
2023/07/07 04:37:20;;;;;;;;;;;;;;;15.53;83.44;101970.78;5013564;28;19933;-46
2023/07/07 04:39:45;;;;;;;;;;;;;;;16.21;81.49;101964.66;5011215;28;19951;-46
2023/07/07 04:42:10;;;;;;;;;;;;;;;16.70;79.03;101964.00;5015389;28;20303;-44
2023/07/07 04:44:35;;;;;;;;;;;;;;;17.10;77.74;101960.44;5012509;28;20004;-43
2023/07/07 04:47:01;;;;;;;;;;;;;;;17.57;76.16;101957.81;5013796;28;19968;-44
2023/07/07 04:49:26;;;;;;;;;;;;;;;17.99;74.97;101950.72;5015599;28;19978;-43
2023/07/07 04:51:51;;;;;;;;;;;;;;;18.35;73.28;101955.56;5016670;28;19964;-44
2023/07/07 04:54:16;;;;;;;;;;;;;;;18.72;72.72;101959.53;4998258;28;19972;-44
2023/07/07 04:56:44;;;;;;;;;;;;;;;19.01;70.61;101955.53;5016186;28;19925;-46
2023/07/07 04:59:09;;;;;;;;;;;;;;;19.33;70.28;101952.38;5000250;28;19932;-45
2023/07/07 05:01:36;;;;;;;;;;;;;;;19.54;69.71;101949.97;5016305;28;19921;-48
2023/07/07 05:04:02;;;;;;;;;;;;;;;19.73;68.37;101958.84;5023728;28;19921;-46
2023/07/07 05:06:28;;;;;;;;;;;;;;;19.95;68.42;101949.41;4996552;28;20593;-44
2023/07/07 05:08:54;;;;;;;;;;;;;;;20.07;67.02;101959.06;5003656;28;19925;-44
2023/07/07 05:11:21;;;;;;;;;;;;;;;20.10;66.96;101951.25;4972496;28;19971;-43
2023/07/07 05:13:48;;;;;;;;;;;;;;;20.21;64.29;101951.34;4998269;28;19940;-46
2023/07/07 05:16:14;;;;;;;;;;;;;;;20.40;64.85;101953.16;5005304;28;19925;-44
2023/07/07 05:18:39;;;;;;;;;;;;;;;20.58;64.20;101955.91;5004627;28;20344;-45
2023/07/07 05:21:05;;;;;;;;;;;;;;;20.69;64.08;101955.03;5006765;28;19917;-46
2023/07/07 05:23:31;;;;;;;;;;;;;;;20.80;63.61;101955.94;5006632;28;19921;-44
2023/07/07 05:25:56;;;;;;;;;;;;;;;20.99;59.69;101956.88;5011283;28;20437;-44
2023/07/07 05:28:21;;;;;;;;;;;;;;;21.09;59.92;101959.53;5004494;28;19965;-45
2023/07/07 05:30:47;;;;;;;;;;;;;;;20.87;62.32;101955.13;5004147;28;20334;-45
2023/07/07 05:33:12;;;;;;;;;;;;;;;20.85;61.39;101951.63;5007986;28;20497;-45
2023/07/07 05:35:48;;;;;;;;;;;;;;;21.21;60.20;101965.66;5012307;28;19918;-45
2023/07/07 05:38:13;;;;;;;;;;;;;;;21.62;59.95;101961.34;5004871;28;20041;-45
2023/07/07 05:40:39;;;;;;;;;;;;;;;21.86;56.14;101970.06;5009759;28;19929;-45
2023/07/07 05:43:04;;;;;;;;;;;;;;;22.06;57.53;101965.66;5002247;28;19988;-46
2023/07/07 05:45:29;;;;;;;;;;;;;;;22.26;57.12;101967.41;5000061;28;20372;-44
2023/07/07 05:47:55;;;;;;;;;;;;;;;22.42;57.87;101975.22;5004768;28;19921;-46
2023/07/07 05:50:20;;;;;;;;;;;;;;;22.66;57.27;101971.63;5007708;28;20268;-45
2023/07/07 05:52:48;;;;;;;;;;;;;;;22.79;54.97;101969.81;5002229;28;19958;-46
2023/07/07 05:55:21;;;;;;;;;;;;;;;22.84;53.85;101970.66;5006777;28;19941;-44
2023/07/07 05:57:46;;;;;;;;;;;;;;;22.83;55.74;101974.19;5005631;28;19913;-44
2023/07/07 06:00:13;;;;;;;;;;;;;;;22.99;54.19;101975.88;5009694;28;20394;-44
2023/07/07 06:02:39;;;;;;;;;;;;;;;23.12;54.89;101984.53;4984966;28;21188;-45
2023/07/07 06:05:04;;;;;;;;;;;;;;;23.27;53.11;101970.44;5006390;28;19925;-47
2023/07/07 06:07:30;;;;;;;;;;;;;;;23.18;52.07;101973.16;5025663;28;20441;-47
2023/07/07 06:09:57;;;;;;;;;;;;;;;23.12;53.81;101968.81;5025755;28;19921;-45
2023/07/07 06:12:23;;;;;;;;;;;;;;;23.07;52.85;101975.81;5025695;28;19924;-47
2023/07/07 06:14:48;;;;;;;;;;;;;;;23.11;53.10;101981.91;5022050;28;20406;-47
2023/07/07 06:17:13;;;;;;;;;;;;;;;23.19;52.38;101974.88;5010772;28;19918;-47
2023/07/07 06:19:38;;;;;;;;;;;;;;;23.18;51.62;101974.00;5030007;28;20016;-48
2023/07/07 06:22:04;;;;;;;;;;;;;;;23.31;51.72;101968.69;5020896;28;20702;-45
2023/07/07 06:24:29;;;;;;;;;;;;;;;23.22;51.19;101969.59;5004898;28;19929;-45
2023/07/07 06:26:54;;;;;;;;;;;;;;;23.28;52.52;101975.66;5025485;28;19921;-47
2023/07/07 06:29:20;;;;;;;;;;;;;;;23.33;50.31;101973.03;5025665;28;20342;-48
2023/07/07 06:31:45;;;;;;;;;;;;;;;23.37;49.26;101966.88;5025892;28;20292;-45
2023/07/07 06:34:10;;;;;;;;;;;;;;;23.50;49.39;101978.16;5021214;28;19928;-49
2023/07/07 06:36:35;;;;;;;;;;;;;;;23.59;50.94;101982.44;5025214;28;19929;-48
2023/07/07 06:39:01;;;;;;;;;;;;;;;23.50;48.27;101975.53;5028428;28;20282;-47
2023/07/07 06:41:26;;;;;;;;;;;;;;;23.32;48.96;101973.91;5011838;28;19921;-45
2023/07/07 06:43:53;;;;;;;;;;;;;;;23.33;50.45;101982.66;5009522;28;19921;-48
2023/07/07 06:46:22;;;;;;;;;;;;;;;23.18;49.69;101987.13;5020560;28;20457;-45
2023/07/07 06:48:47;;;;;;;;;;;;;;;23.07;49.29;101988.94;5022051;28;19921;-48
2023/07/07 06:51:12;;;;;;;;;;;;;;;23.20;51.09;101982.72;5021559;28;19932;-46
2023/07/07 06:53:37;;;;;;;;;;;;;;;23.40;49.85;101984.34;5027451;28;19956;-45
2023/07/07 06:56:03;;;;;;;;;;;;;;;23.70;50.14;101984.13;5022557;28;19925;-45
2023/07/07 06:58:28;;;;;;;;;;;;;;;23.89;48.65;101986.59;5023896;28;19921;-46
2023/07/07 07:00:53;;;;;;;;;;;;;;;23.97;48.22;101993.53;5036100;28;19968;-45
2023/07/07 07:03:19;;;;;;;;;;;;;;;24.11;49.21;101989.91;5027395;28;19921;-46
2023/07/07 07:05:45;;;;;;;;;;;;;;;24.14;48.74;101987.22;5022848;28;19925;-47
2023/07/07 07:08:11;;;;;;;;;;;;;;;24.31;47.63;101994.03;5026567;28;19922;-47
2023/07/07 07:10:36;;;;;;;;;;;;;;;24.42;47.65;101991.31;5026729;28;20403;-48
2023/07/07 07:13:01;;;;;;;;;;;;;;;24.61;46.41;101990.22;5026122;28;19927;-46
2023/07/07 07:15:27;;;;;;;;;;;;;;;24.63;46.98;101989.31;5019901;28;19923;-48
2023/07/07 07:17:52;;;;;;;;;;;;;;;24.76;45.18;101998.81;5020549;28;20028;-48
2023/07/07 07:20:17;;;;;;;;;;;;;;;24.74;45.96;101988.28;5007771;28;19921;-48
2023/07/07 07:22:43;;;;;;;;;;;;;;;24.71;44.44;102004.13;5024262;28;20383;-45
2023/07/07 07:25:09;;;;;;;;;;;;;;;24.61;44.19;102002.50;5026339;28;19913;-47
2023/07/07 07:27:34;;;;;;;;;;;;;;;24.40;45.11;102003.63;5030491;28;19935;-47
2023/07/07 07:30:00;;;;;;;;;;;;;;;24.41;46.35;102001.88;5019932;28;19944;-45
2023/07/07 07:32:25;;;;;;;;;;;;;;;24.49;46.30;102000.88;5023008;28;20010;-45
2023/07/07 07:34:50;;;;;;;;;;;;;;;24.65;45.95;102000.72;5021867;28;19933;-48
2023/07/07 07:37:16;;;;;;;;;;;;;;;24.87;46.48;102007.41;5016183;28;19918;-48
2023/07/07 07:39:41;;;;;;;;;;;;;;;24.98;45.56;102007.28;5023303;28;20291;-45
2023/07/07 07:42:06;;;;;;;;;;;;;;;24.85;46.29;102006.56;5020429;28;19914;-48
2023/07/07 07:44:32;;;;;;;;;;;;;;;24.91;46.18;102001.22;5022280;28;19962;-49
2023/07/07 07:46:58;;;;;;;;;;;;;;;24.94;46.24;102001.22;5022356;28;19943;-45
2023/07/07 07:49:24;;;;;;;;;;;;;;;25.00;45.42;102000.25;5013636;28;19933;-48
2023/07/07 07:51:50;;;;;;;;;;;;;;;24.99;45.70;102009.00;5020060;28;19924;-46
2023/07/07 07:54:18;;;;;;;;;;;;;;;24.99;44.60;102003.75;5015342;28;19918;-44
2023/07/07 07:56:44;;;;;;;;;;;;;;;24.88;45.30;102003.91;5015285;28;20401;-47
2023/07/07 07:59:09;;;;;;;;;;;;;;;24.85;46.18;102009.22;5018409;28;20425;-45
2023/07/07 08:01:34;;;;;;;;;;;;;;;24.94;45.95;102006.47;5025533;28;19952;-46
2023/07/07 08:04:00;;;;;;;;;;;;;;;24.92;45.98;102000.34;4999296;28;19925;-49
2023/07/07 08:06:25;;;;;;;;;;;;;;;25.07;45.30;102010.69;5017565;28;20302;-44
2023/07/07 08:08:50;;;;;;;;;;;;;;;25.09;46.05;102001.00;5006069;28;19932;-47
2023/07/07 08:11:20;;;;;;;;;;;;;;;25.31;45.51;102005.97;5005007;28;20004;-45
2023/07/07 08:13:45;;;;;;;;;;;;;;;25.58;45.28;102005.53;5020717;28;19925;-45
2023/07/07 08:16:11;;;;;;;;;;;;;;;25.60;45.66;102006.41;5021672;28;19924;-49
2023/07/07 08:18:37;;;;;;;;;;;;;;;25.74;45.77;102007.97;5025575;28;20401;-45
2023/07/07 08:21:03;;;;;;;;;;;;;;;25.93;44.95;102006.75;5018111;28;19917;-48
2023/07/07 08:23:29;;;;;;;;;;;;;;;26.03;44.22;102004.78;5020300;28;19927;-48
2023/07/07 08:25:54;;;;;;;;;;;;;;;26.05;43.93;102003.88;5020685;28;20004;-49
2023/07/07 08:28:19;;;;;;;;;;;;;;;25.96;43.33;102005.81;5020633;28;20281;-49
2023/07/07 08:30:45;;;;;;;;;;;;;;;25.82;42.75;102006.91;5021094;28;20352;-49
2023/07/07 08:33:10;;;;;;;;;;;;;;;25.57;42.68;102008.19;5027072;28;19921;-49
2023/07/07 08:35:36;;;;;;;;;;;;;;;25.48;41.79;102009.22;5030342;28;19921;-46
2023/07/07 08:38:01;;;;;;;;;;;;;;;25.55;42.45;102004.72;5018459;28;19925;-48
2023/07/07 08:40:35;;;;;;;;;;;;;;;25.53;41.94;102006.50;5029721;28;19921;-48
2023/07/07 08:43:00;;;;;;;;;;;;;;;25.58;43.02;102013.44;5028531;28;19925;-48
2023/07/07 08:45:27;;;;;;;;;;;;;;;25.75;42.41;102007.91;5020900;28;19948;-47
2023/07/07 08:47:58;;;;;;;;;;;;;;;26.00;43.99;102008.38;5022401;28;19928;-48
2023/07/07 08:50:37;;;;;;;;;;;;;;;26.32;41.64;102009.53;5018889;28;19928;-50
2023/07/07 08:53:08;;;;;;;;;;;;;;;26.46;40.70;102005.75;5023024;28;19948;-47
2023/07/07 08:55:37;;;;;;;;;;;;;;;26.64;42.03;102009.81;5022810;28;19935;-48
2023/07/07 08:58:08;;;;;;;;;;;;;;;26.75;40.27;102006.91;5023330;28;19937;-49
2023/07/07 09:00:44;;;;;;;;;;;;;;;26.79;37.64;102005.97;5024296;28;19932;-47
2023/07/07 09:03:20;;;;;;;;;;;;;;;26.65;39.50;102008.91;5020221;28;19924;-50
2023/07/07 09:05:54;;;;;;;;;;;;;;;26.54;40.38;102004.75;5026081;28;19979;-49
2023/07/07 09:08:19;;;;;;;;;;;;;;;26.52;40.12;102007.41;5029322;28;20387;-50
2023/07/07 09:11:01;;;;;;;;;;;;;;;26.51;38.24;102003.00;5023036;28;19921;-48
2023/07/07 09:13:31;;;;;;;;;;;;;;;26.53;39.94;102003.00;5026906;28;20383;-45
2023/07/07 09:15:59;;;;;;;;;;;;;;;26.53;38.67;102009.16;5019862;28;19917;-46
2023/07/07 09:18:27;;;;;;;;;;;;;;;26.40;39.03;102007.63;5026157;28;19913;-49
2023/07/07 09:20:54;;;;;;;;;;;;;;;26.26;38.08;102001.72;5023979;28;19940;-46
2023/07/07 09:23:21;;;;;;;;;;;;;;;26.17;38.48;101995.75;5024245;28;20835;-47
2023/07/07 09:25:52;;;;;;;;;;;;;;;26.18;38.35;101994.84;5023880;28;19918;-46
2023/07/07 09:28:17;;;;;;;;;;;;;;;26.21;38.33;102001.84;5024752;28;19917;-47
2023/07/07 09:31:09;;;;;;;;;;;;;;;26.26;37.35;101999.97;5019571;28;20415;-44
2023/07/07 09:33:34;;;;;;;;;;;;;;;26.23;37.95;101996.53;5020160;28;19925;-47
2023/07/07 09:36:18;;;;;;;;;;;;;;;26.25;39.01;101998.22;5023951;28;19939;-46
2023/07/07 09:38:57;;;;;;;;;;;;;;;26.31;35.75;101997.25;5023308;28;19924;-48
2023/07/07 09:41:41;;;;;;;;;;;;;;;26.19;38.52;101993.94;5021794;28;19925;-48
2023/07/07 09:44:25;;;;;;;;;;;;;;;26.35;37.32;101991.03;5028208;28;19990;-46
2023/07/07 09:47:00;;;;;;;;;;;;;;;26.36;37.71;101993.63;5020651;28;19917;-48
2023/07/07 09:49:28;;;;;;;;;;;;;;;26.38;36.66;101994.44;5021658;28;20591;-46
2023/07/07 09:52:12;;;;;;;;;;;;;;;26.42;34.73;101995.31;5026315;28;19920;-46
2023/07/07 09:54:38;;;;;;;;;;;;;;;26.27;37.31;101990.28;5011721;28;19921;-47
2023/07/07 09:57:09;;;;;;;;;;;;;;;26.30;37.73;101979.69;5029223;28;19987;-47
2023/07/07 09:59:36;;;;;;;;;;;;;;;26.34;37.00;101981.38;5029602;28;19931;-45
2023/07/07 10:02:21;;;;;;;;;;;;;;;26.41;37.29;101983.03;5017559;28;20016;-48
2023/07/07 10:05:05;;;;;;;;;;;;;;;26.50;37.09;101980.19;5022750;28;19921;-48
2023/07/07 10:07:36;;;;;;;;;;;;;;;26.50;37.03;101979.31;5025343;28;19928;-46
2023/07/07 10:10:02;;;;;;;;;;;;;;;26.55;37.30;101988.88;5025781;28;19973;-47
2023/07/07 10:12:27;;;;;;;;;;;;;;;26.64;35.84;101986.06;5020781;28;20509;-48
2023/07/07 10:14:54;;;;;;;;;;;;;;;26.69;37.02;101972.75;5024692;28;20717;-48
2023/07/07 10:17:24;;;;;;;;;;;;;;;26.81;36.79;101972.47;5025168;28;19928;-45
2023/07/07 10:19:53;;;;;;;;;;;;;;;26.90;37.40;101974.94;5014641;28;20360;-45
2023/07/07 10:22:20;;;;;;;;;;;;;;;27.04;36.22;101963.19;5004394;28;19917;-43
2023/07/07 10:24:45;;;;;;;;;;;;;;;26.99;37.28;101972.06;5021215;28;19923;-45
2023/07/07 10:27:11;;;;;;;;;;;;;;;27.10;36.88;101971.00;5002266;28;19921;-47
2023/07/07 10:29:40;;;;;;;;;;;;;;;27.13;35.25;101963.03;5020368;28;20572;-45
2023/07/07 10:32:09;;;;;;;;;;;;;;;27.20;37.32;101960.19;5019019;28;19917;-46
2023/07/07 10:34:36;;;;;;;;;;;;;;;27.35;35.11;101964.22;5020021;28;20018;-46
2023/07/07 10:37:02;;;;;;;;;;;;;;;27.36;34.65;101963.31;5017040;28;19978;-48
2023/07/07 10:39:28;;;;;;;;;;;;;;;27.34;34.97;101956.34;5022314;28;19933;-44
2023/07/07 10:41:54;;;;;;;;;;;;;;;27.46;35.46;101958.69;5018832;28;20411;-46
2023/07/07 10:44:22;;;;;;;;;;;;;;;27.41;35.45;101958.78;5019684;28;19917;-46
2023/07/07 10:46:47;;;;;;;;;;;;;;;27.34;33.20;101956.34;5018982;28;19971;-48
2023/07/07 10:49:15;;;;;;;;;;;;;;;27.26;32.25;101967.97;5017176;28;19968;-46
2023/07/07 10:51:59;;;;;;;;;;;;;;;27.11;33.92;101960.38;5019759;28;19920;-49
2023/07/07 10:54:32;;;;;;;;;;;;;;;27.03;35.00;101959.69;5012951;28;20022;-47
2023/07/07 10:57:07;;;;;;;;;;;;;;;27.17;34.94;101954.09;5018491;28;20460;-46
2023/07/07 10:59:35;;;;;;;;;;;;;;;27.36;34.16;101943.94;5020430;28;19935;-46
2023/07/07 11:02:03;;;;;;;;;;;;;;;27.47;34.15;101947.19;5017376;28;19970;-49
2023/07/07 11:04:28;;;;;;;;;;;;;;;27.72;35.08;101948.31;5017632;28;20669;-48
2023/07/07 11:07:00;;;;;;;;;;;;;;;28.03;33.14;101943.13;5017577;28;19932;-46
2023/07/07 11:09:33;;;;;;;;;;;;;;;28.32;33.58;101944.94;5004785;28;19917;-46
2023/07/07 11:12:01;;;;;;;;;;;;;;;28.30;33.32;101946.75;5017835;28;20339;-47
2023/07/07 11:14:36;;;;;;;;;;;;;;;28.02;31.36;101945.78;5019144;28;19928;-47
2023/07/07 11:17:10;;;;;;;;;;;;;;;27.93;34.06;101935.47;5020633;28;19913;-48
2023/07/07 11:19:54;;;;;;;;;;;;;;;28.03;33.77;101944.88;5020391;28;20335;-49
2023/07/07 11:22:20;;;;;;;;;;;;;;;27.91;32.68;101935.53;5018080;28;20389;-48
2023/07/07 11:24:48;;;;;;;;;;;;;;;27.73;32.56;101934.25;5005795;28;20076;-55
2023/07/07 11:27:19;;;;;;;;;;;;;;;27.60;32.32;101932.75;5015510;28;20000;-53
2023/07/07 11:29:48;;;;;;;;;;;;;;;27.59;32.66;101932.81;5022575;28;19924;-52
2023/07/07 11:32:31;;;;;;;;;;;;;;;27.81;33.43;101936.66;5021814;28;19979;-53
2023/07/07 11:35:00;;;;;;;;;;;;;;;27.89;32.57;101934.69;5020820;28;20378;-54
2023/07/07 11:37:44;;;;;;;;;;;;;;;27.82;34.28;101924.31;5005762;28;19917;-55
2023/07/07 11:40:18;;;;;;;;;;;;;;;27.98;33.47;101926.50;5020382;28;20597;-54
2023/07/07 11:42:49;;;;;;;;;;;;;;;27.89;33.61;101928.53;5017196;28;19993;-52
2023/07/07 11:45:34;;;;;;;;;;;;;;;27.93;32.51;101923.13;5017252;28;20007;-52
2023/07/07 11:48:18;;;;;;;;;;;;;;;28.00;32.02;101927.31;4990070;28;20375;-54
2023/07/07 11:50:54;;;;;;;;;;;;;;;27.98;32.44;101918.56;5016987;28;20379;-54
2023/07/07 11:53:34;;;;;;;;;;;;;;;28.12;33.49;101919.97;5017988;28;20015;-52
2023/07/07 11:56:00;;;;;;;;;;;;;;;28.36;32.73;101918.41;5016648;28;19978;-55
2023/07/07 11:58:30;;;;;;;;;;;;;;;28.66;31.87;101919.28;5008469;28;19921;-52
2023/07/07 12:01:15;;;;;;;;;;;;;;;28.72;31.40;101922.59;4995438;28;19925;-53
2023/07/07 12:03:43;;;;;;;;;;;;;;;28.55;30.06;101920.47;5018111;28;20245;-55
2023/07/07 12:06:27;;;;;;;;;;;;;;;28.22;30.73;101921.44;5017346;28;19932;-54
2023/07/07 12:08:59;;;;;;;;;;;;;;;28.28;31.16;101906.25;5019010;28;20246;-55
2023/07/07 12:11:27;;;;;;;;;;;;;;;28.47;31.05;101911.91;5016634;28;20095;-56
2023/07/07 12:13:55;;;;;;;;;;;;;;;28.42;32.57;101902.38;5017356;28;20014;-56
2023/07/07 12:16:21;;;;;;;;;;;;;;;28.47;32.35;101901.31;5017713;28;19921;-55
2023/07/07 12:18:49;;;;;;;;;;;;;;;28.71;32.01;101909.41;5017165;28;19921;-55
2023/07/07 12:21:21;;;;;;;;;;;;;;;28.92;30.86;101897.28;5017344;28;20022;-54
2023/07/07 12:23:59;;;;;;;;;;;;;;;28.89;31.46;101900.03;5018458;28;19952;-55
2023/07/07 12:26:35;;;;;;;;;;;;;;;28.94;32.53;101888.41;5017663;28;19928;-55
2023/07/07 12:29:02;;;;;;;;;;;;;;;29.00;30.25;101889.97;5019059;28;19971;-55
2023/07/07 12:31:28;;;;;;;;;;;;;;;28.91;29.06;101884.94;5018551;28;20286;-55
2023/07/07 12:33:54;;;;;;;;;;;;;;;28.96;29.45;101888.34;5022982;28;19921;-55
2023/07/07 12:36:25;;;;;;;;;;;;;;;28.86;30.28;101888.59;5010228;28;19921;-55
2023/07/07 12:38:51;;;;;;;;;;;;;;;28.81;30.96;101889.66;5021279;28;19921;-55